Patrick AFB, Florida
Current Conditions -  °F | °C
As of 3:58 PM on Tuesday 21 Oct 2014 (Local Time) from KCOF Reporting Station
Few Clouds Few Clouds  
Wind Chill: 80°   Ceiling: Unl
Heat Index: 84°   Visibility: 10mi
Dew Point: 72°   Wind: 7mph
Humidity: 76%   Direction: 110°ESE
Pressure: 29.92"   Gusts: NA
Location:  28.22°N, 80.61°W
Report Text: KCOF 211958Z AUTO 11006KT 10SM FEW055 27/22 A2992 RMK AO2 SLP136 T02670221
Loading
Personal Weather Stations






























Interactive Weather Map
Tropical Storm Tracking
New forecast layout! Learn more

10-Day Weather Forecast

Advertisements
Track Severe Weather on mobile